sensor_id;sensor_type;location;lat;lon;timestamp;P1;durP1;ratioP1;P2;durP2;ratioP2
60582;SDS011;46415;47.536;19.066;2023-03-24T00:00:04;17.02;;;10.70;;
60582;SDS011;46415;47.536;19.066;2023-03-24T00:03:12;16.60;;;9.77;;
60582;SDS011;46415;47.536;19.066;2023-03-24T00:06:18;16.02;;;8.85;;
60582;SDS011;46415;47.536;19.066;2023-03-24T00:09:24;12.57;;;8.57;;
60582;SDS011;46415;47.536;19.066;2023-03-24T00:12:27;13.38;;;9.93;;
60582;SDS011;46415;47.536;19.066;2023-03-24T00:15:30;14.70;;;10.75;;
60582;SDS011;46415;47.536;19.066;2023-03-24T00:18:33;12.95;;;7.57;;
60582;SDS011;46415;47.536;19.066;2023-03-24T00:21:36;14.95;;;10.43;;
60582;SDS011;46415;47.536;19.066;2023-03-24T00:24:39;12.57;;;7.93;;
60582;SDS011;46415;47.536;19.066;2023-03-24T00:27:43;11.98;;;7.60;;
60582;SDS011;46415;47.536;19.066;2023-03-24T00:30:50;12.60;;;9.23;;
60582;SDS011;46415;47.536;19.066;2023-03-24T00:33:53;11.68;;;6.85;;
60582;SDS011;46415;47.536;19.066;2023-03-24T00:36:56;12.35;;;7.62;;
60582;SDS011;46415;47.536;19.066;2023-03-24T00:39:59;12.23;;;7.82;;
60582;SDS011;46415;47.536;19.066;2023-03-24T00:43:03;11.15;;;7.80;;
60582;SDS011;46415;47.536;19.066;2023-03-24T00:46:06;16.45;;;7.62;;
60582;SDS011;46415;47.536;19.066;2023-03-24T00:49:12;12.98;;;7.53;;
60582;SDS011;46415;47.536;19.066;2023-03-24T00:52:18;12.07;;;8.43;;
60582;SDS011;46415;47.536;19.066;2023-03-24T00:55:23;10.23;;;7.40;;
60582;SDS011;46415;47.536;19.066;2023-03-24T00:58:30;13.40;;;7.45;;
60582;SDS011;46415;47.536;19.066;2023-03-24T01:01:35;13.05;;;8.90;;
60582;SDS011;46415;47.536;19.066;2023-03-24T01:04:39;10.85;;;7.53;;
60582;SDS011;46415;47.536;19.066;2023-03-24T01:07:42;11.12;;;7.32;;
60582;SDS011;46415;47.536;19.066;2023-03-24T01:10:48;12.20;;;8.32;;
60582;SDS011;46415;47.536;19.066;2023-03-24T01:14:07;11.70;;;8.25;;
60582;SDS011;46415;47.536;19.066;2023-03-24T01:17:11;11.25;;;6.87;;
60582;SDS011;46415;47.536;19.066;2023-03-24T01:20:14;11.98;;;7.62;;
60582;SDS011;46415;47.536;19.066;2023-03-24T01:23:19;14.65;;;8.48;;
60582;SDS011;46415;47.536;19.066;2023-03-24T01:26:23;12.37;;;8.32;;
60582;SDS011;46415;47.536;19.066;2023-03-24T01:29:26;14.93;;;8.23;;
60582;SDS011;46415;47.536;19.066;2023-03-24T01:32:29;12.43;;;7.60;;
60582;SDS011;46415;47.536;19.066;2023-03-24T01:35:32;13.50;;;7.15;;
60582;SDS011;46415;47.536;19.066;2023-03-24T01:38:36;12.13;;;7.40;;
60582;SDS011;46415;47.536;19.066;2023-03-24T01:41:40;12.40;;;7.75;;
60582;SDS011;46415;47.536;19.066;2023-03-24T01:44:45;10.48;;;7.18;;
60582;SDS011;46415;47.536;19.066;2023-03-24T01:47:49;11.07;;;8.00;;
60582;SDS011;46415;47.536;19.066;2023-03-24T01:51:00;12.63;;;7.78;;
60582;SDS011;46415;47.536;19.066;2023-03-24T01:54:07;15.57;;;8.00;;
60582;SDS011;46415;47.536;19.066;2023-03-24T01:57:34;13.50;;;8.20;;
60582;SDS011;46415;47.536;19.066;2023-03-24T02:00:40;12.27;;;7.50;;
60582;SDS011;46415;47.536;19.066;2023-03-24T02:03:45;13.30;;;8.38;;
60582;SDS011;46415;47.536;19.066;2023-03-24T02:06:48;14.27;;;8.02;;
60582;SDS011;46415;47.536;19.066;2023-03-24T02:09:52;13.90;;;8.40;;
60582;SDS011;46415;47.536;19.066;2023-03-24T02:12:55;14.05;;;8.27;;
60582;SDS011;46415;47.536;19.066;2023-03-24T02:19:40;12.88;;;8.35;;
60582;SDS011;46415;47.536;19.066;2023-03-24T02:23:09;14.25;;;7.80;;
60582;SDS011;46415;47.536;19.066;2023-03-24T02:36:32;13.55;;;8.65;;
60582;SDS011;46415;47.536;19.066;2023-03-24T02:51:25;11.10;;;7.45;;
60582;SDS011;46415;47.536;19.066;2023-03-24T02:54:48;11.07;;;8.20;;
60582;SDS011;46415;47.536;19.066;2023-03-24T02:58:02;10.57;;;7.55;;
60582;SDS011;46415;47.536;19.066;2023-03-24T03:01:12;10.43;;;7.60;;
60582;SDS011;46415;47.536;19.066;2023-03-24T03:05:05;10.38;;;7.57;;
60582;SDS011;46415;47.536;19.066;2023-03-24T03:07:51;13.43;;;7.43;;
60582;SDS011;46415;47.536;19.066;2023-03-24T03:11:00;11.60;;;7.40;;
60582;SDS011;46415;47.536;19.066;2023-03-24T03:14:07;12.20;;;8.15;;
60582;SDS011;46415;47.536;19.066;2023-03-24T03:17:18;11.27;;;8.48;;
60582;SDS011;46415;47.536;19.066;2023-03-24T03:20:25;15.55;;;7.82;;
60582;SDS011;46415;47.536;19.066;2023-03-24T03:23:42;18.60;;;8.70;;
60582;SDS011;46415;47.536;19.066;2023-03-24T03:26:50;11.30;;;7.43;;
60582;SDS011;46415;47.536;19.066;2023-03-24T03:30:06;11.45;;;7.60;;
60582;SDS011;46415;47.536;19.066;2023-03-24T03:33:19;14.02;;;7.50;;
60582;SDS011;46415;47.536;19.066;2023-03-24T03:39:41;10.90;;;7.25;;
60582;SDS011;46415;47.536;19.066;2023-03-24T03:42:49;10.45;;;7.75;;
60582;SDS011;46415;47.536;19.066;2023-03-24T03:45:53;13.32;;;8.65;;
60582;SDS011;46415;47.536;19.066;2023-03-24T03:48:57;20.20;;;7.57;;
60582;SDS011;46415;47.536;19.066;2023-03-24T03:52:00;15.40;;;8.32;;
60582;SDS011;46415;47.536;19.066;2023-03-24T03:55:03;12.18;;;8.43;;
60582;SDS011;46415;47.536;19.066;2023-03-24T03:58:08;12.52;;;8.15;;
60582;SDS011;46415;47.536;19.066;2023-03-24T04:01:11;15.13;;;7.30;;
60582;SDS011;46415;47.536;19.066;2023-03-24T04:21:39;16.13;;;7.43;;
60582;SDS011;46415;47.536;19.066;2023-03-24T04:28:46;14.07;;;7.62;;
60582;SDS011;46415;47.536;19.066;2023-03-24T04:34:43;15.27;;;7.97;;
60582;SDS011;46415;47.536;19.066;2023-03-24T04:38:05;19.30;;;8.23;;
60582;SDS011;46415;47.536;19.066;2023-03-24T04:41:12;14.75;;;8.27;;
60582;SDS011;46415;47.536;19.066;2023-03-24T04:44:20;11.82;;;6.97;;
60582;SDS011;46415;47.536;19.066;2023-03-24T04:47:25;11.35;;;7.22;;
60582;SDS011;46415;47.536;19.066;2023-03-24T04:50:32;13.18;;;7.97;;
60582;SDS011;46415;47.536;19.066;2023-03-24T04:53:40;10.52;;;7.07;;
60582;SDS011;46415;47.536;19.066;2023-03-24T04:56:52;10.85;;;7.68;;
60582;SDS011;46415;47.536;19.066;2023-03-24T04:59:58;9.88;;;7.22;;
60582;SDS011;46415;47.536;19.066;2023-03-24T05:03:02;12.27;;;7.87;;
60582;SDS011;46415;47.536;19.066;2023-03-24T05:06:06;13.20;;;7.78;;
60582;SDS011;46415;47.536;19.066;2023-03-24T05:09:09;13.85;;;7.07;;
60582;SDS011;46415;47.536;19.066;2023-03-24T05:12:12;11.20;;;6.57;;
60582;SDS011;46415;47.536;19.066;2023-03-24T05:15:16;13.73;;;8.30;;
60582;SDS011;46415;47.536;19.066;2023-03-24T05:18:19;10.10;;;7.07;;
60582;SDS011;46415;47.536;19.066;2023-03-24T05:21:23;12.13;;;7.75;;
60582;SDS011;46415;47.536;19.066;2023-03-24T05:24:25;11.95;;;7.60;;
60582;SDS011;46415;47.536;19.066;2023-03-24T05:27:28;11.32;;;7.57;;
60582;SDS011;46415;47.536;19.066;2023-03-24T05:30:32;11.77;;;8.15;;
60582;SDS011;46415;47.536;19.066;2023-03-24T05:33:39;10.02;;;7.12;;
60582;SDS011;46415;47.536;19.066;2023-03-24T05:36:44;11.75;;;8.20;;
60582;SDS011;46415;47.536;19.066;2023-03-24T05:39:47;17.48;;;9.07;;
60582;SDS011;46415;47.536;19.066;2023-03-24T05:42:51;12.80;;;8.13;;
60582;SDS011;46415;47.536;19.066;2023-03-24T05:45:55;11.38;;;7.37;;
60582;SDS011;46415;47.536;19.066;2023-03-24T05:48:58;11.07;;;7.78;;
60582;SDS011;46415;47.536;19.066;2023-03-24T05:52:02;14.87;;;8.40;;
60582;SDS011;46415;47.536;19.066;2023-03-24T05:55:05;11.60;;;7.93;;
60582;SDS011;46415;47.536;19.066;2023-03-24T05:58:09;12.43;;;8.27;;
60582;SDS011;46415;47.536;19.066;2023-03-24T06:01:13;12.30;;;8.30;;
60582;SDS011;46415;47.536;19.066;2023-03-24T06:04:20;12.77;;;8.70;;
60582;SDS011;46415;47.536;19.066;2023-03-24T06:07:23;14.10;;;10.00;;
60582;SDS011;46415;47.536;19.066;2023-03-24T06:10:29;17.33;;;10.07;;
60582;SDS011;46415;47.536;19.066;2023-03-24T06:13:32;14.77;;;10.90;;
60582;SDS011;46415;47.536;19.066;2023-03-24T06:16:35;14.98;;;9.93;;
60582;SDS011;46415;47.536;19.066;2023-03-24T06:19:42;16.35;;;11.65;;
60582;SDS011;46415;47.536;19.066;2023-03-24T06:22:51;12.70;;;10.15;;
60582;SDS011;46415;47.536;19.066;2023-03-24T06:25:56;15.90;;;11.07;;
60582;SDS011;46415;47.536;19.066;2023-03-24T06:29:05;17.50;;;12.32;;
60582;SDS011;46415;47.536;19.066;2023-03-24T06:32:08;16.08;;;9.45;;
60582;SDS011;46415;47.536;19.066;2023-03-24T06:35:13;20.15;;;13.10;;
60582;SDS011;46415;47.536;19.066;2023-03-24T06:38:17;17.85;;;11.57;;
60582;SDS011;46415;47.536;19.066;2023-03-24T06:41:20;14.60;;;11.02;;
60582;SDS011;46415;47.536;19.066;2023-03-24T06:44:25;16.33;;;13.68;;
60582;SDS011;46415;47.536;19.066;2023-03-24T06:47:28;18.42;;;13.48;;
60582;SDS011;46415;47.536;19.066;2023-03-24T06:50:31;17.37;;;13.20;;
60582;SDS011;46415;47.536;19.066;2023-03-24T06:53:36;17.83;;;13.70;;
60582;SDS011;46415;47.536;19.066;2023-03-24T06:56:39;17.23;;;13.35;;
60582;SDS011;46415;47.536;19.066;2023-03-24T06:59:43;20.48;;;14.55;;
60582;SDS011;46415;47.536;19.066;2023-03-24T07:02:46;19.55;;;13.95;;
60582;SDS011;46415;47.536;19.066;2023-03-24T07:05:49;17.23;;;14.13;;
60582;SDS011;46415;47.536;19.066;2023-03-24T07:08:52;18.33;;;14.15;;
60582;SDS011;46415;47.536;19.066;2023-03-24T07:11:55;17.23;;;14.65;;
60582;SDS011;46415;47.536;19.066;2023-03-24T07:14:58;17.67;;;14.23;;
60582;SDS011;46415;47.536;19.066;2023-03-24T07:18:01;18.95;;;14.02;;
60582;SDS011;46415;47.536;19.066;2023-03-24T07:21:05;17.55;;;13.77;;
60582;SDS011;46415;47.536;19.066;2023-03-24T07:24:09;18.50;;;13.68;;
60582;SDS011;46415;47.536;19.066;2023-03-24T07:27:12;16.05;;;13.68;;
60582;SDS011;46415;47.536;19.066;2023-03-24T07:30:15;16.65;;;12.75;;
60582;SDS011;46415;47.536;19.066;2023-03-24T07:33:25;17.73;;;13.93;;
60582;SDS011;46415;47.536;19.066;2023-03-24T07:36:28;17.70;;;13.62;;
60582;SDS011;46415;47.536;19.066;2023-03-24T07:39:32;16.02;;;13.07;;
60582;SDS011;46415;47.536;19.066;2023-03-24T07:42:35;15.32;;;12.60;;
60582;SDS011;46415;47.536;19.066;2023-03-24T07:45:43;16.02;;;12.43;;
60582;SDS011;46415;47.536;19.066;2023-03-24T07:48:47;14.43;;;12.55;;
60582;SDS011;46415;47.536;19.066;2023-03-24T07:51:51;15.02;;;11.88;;
60582;SDS011;46415;47.536;19.066;2023-03-24T07:54:55;15.18;;;12.13;;
60582;SDS011;46415;47.536;19.066;2023-03-24T07:57:59;13.90;;;11.50;;
60582;SDS011;46415;47.536;19.066;2023-03-24T08:01:05;16.55;;;12.77;;
60582;SDS011;46415;47.536;19.066;2023-03-24T08:04:10;12.88;;;11.02;;
60582;SDS011;46415;47.536;19.066;2023-03-24T08:07:17;14.70;;;11.52;;
60582;SDS011;46415;47.536;19.066;2023-03-24T08:10:21;16.58;;;12.57;;
60582;SDS011;46415;47.536;19.066;2023-03-24T08:13:26;14.27;;;10.90;;
60582;SDS011;46415;47.536;19.066;2023-03-24T08:16:29;14.30;;;12.00;;
60582;SDS011;46415;47.536;19.066;2023-03-24T08:19:32;12.07;;;10.30;;
60582;SDS011;46415;47.536;19.066;2023-03-24T08:22:35;13.85;;;10.77;;
60582;SDS011;46415;47.536;19.066;2023-03-24T08:25:38;12.70;;;10.27;;
60582;SDS011;46415;47.536;19.066;2023-03-24T08:28:41;13.30;;;10.20;;
60582;SDS011;46415;47.536;19.066;2023-03-24T08:31:44;13.13;;;9.38;;
60582;SDS011;46415;47.536;19.066;2023-03-24T08:34:48;10.35;;;9.02;;
60582;SDS011;46415;47.536;19.066;2023-03-24T08:37:50;12.68;;;9.18;;
60582;SDS011;46415;47.536;19.066;2023-03-24T08:40:54;12.43;;;9.05;;
60582;SDS011;46415;47.536;19.066;2023-03-24T08:43:56;10.68;;;9.57;;
60582;SDS011;46415;47.536;19.066;2023-03-24T08:47:00;13.73;;;8.68;;
60582;SDS011;46415;47.536;19.066;2023-03-24T08:50:03;10.35;;;8.07;;
60582;SDS011;46415;47.536;19.066;2023-03-24T08:53:08;10.65;;;8.20;;
60582;SDS011;46415;47.536;19.066;2023-03-24T08:56:15;11.63;;;8.88;;
60582;SDS011;46415;47.536;19.066;2023-03-24T08:59:18;10.23;;;8.63;;
60582;SDS011;46415;47.536;19.066;2023-03-24T09:02:20;10.13;;;8.35;;
60582;SDS011;46415;47.536;19.066;2023-03-24T09:05:24;10.35;;;8.10;;
60582;SDS011;46415;47.536;19.066;2023-03-24T09:08:45;9.27;;;7.25;;
60582;SDS011;46415;47.536;19.066;2023-03-24T09:11:50;9.35;;;7.37;;
60582;SDS011;46415;47.536;19.066;2023-03-24T09:14:53;8.60;;;7.47;;
60582;SDS011;46415;47.536;19.066;2023-03-24T09:17:56;9.38;;;7.60;;
60582;SDS011;46415;47.536;19.066;2023-03-24T09:20:58;11.48;;;7.85;;
60582;SDS011;46415;47.536;19.066;2023-03-24T09:24:02;8.80;;;7.22;;
60582;SDS011;46415;47.536;19.066;2023-03-24T09:27:04;7.95;;;7.15;;
60582;SDS011;46415;47.536;19.066;2023-03-24T09:30:09;8.05;;;7.00;;
60582;SDS011;46415;47.536;19.066;2023-03-24T09:33:14;8.05;;;6.43;;
60582;SDS011;46415;47.536;19.066;2023-03-24T09:36:17;8.52;;;6.65;;
60582;SDS011;46415;47.536;19.066;2023-03-24T09:39:19;6.97;;;6.25;;
60582;SDS011;46415;47.536;19.066;2023-03-24T09:42:23;7.20;;;6.25;;
60582;SDS011;46415;47.536;19.066;2023-03-24T09:45:32;8.95;;;6.87;;
60582;SDS011;46415;47.536;19.066;2023-03-24T09:48:46;9.95;;;7.57;;
60582;SDS011;46415;47.536;19.066;2023-03-24T09:51:54;7.97;;;7.18;;
60582;SDS011;46415;47.536;19.066;2023-03-24T09:55:04;8.85;;;7.93;;
60582;SDS011;46415;47.536;19.066;2023-03-24T09:58:09;10.55;;;7.40;;
60582;SDS011;46415;47.536;19.066;2023-03-24T10:01:15;10.23;;;7.32;;
60582;SDS011;46415;47.536;19.066;2023-03-24T10:04:21;12.57;;;8.50;;
60582;SDS011;46415;47.536;19.066;2023-03-24T10:07:38;8.80;;;7.78;;
60582;SDS011;46415;47.536;19.066;2023-03-24T10:18:27;8.43;;;7.15;;
60582;SDS011;46415;47.536;19.066;2023-03-24T10:21:35;10.27;;;7.68;;
60582;SDS011;46415;47.536;19.066;2023-03-24T10:24:47;9.02;;;7.65;;
60582;SDS011;46415;47.536;19.066;2023-03-24T10:27:59;9.55;;;7.50;;
60582;SDS011;46415;47.536;19.066;2023-03-24T10:31:27;9.52;;;7.40;;
60582;SDS011;46415;47.536;19.066;2023-03-24T10:34:32;9.10;;;7.05;;
60582;SDS011;46415;47.536;19.066;2023-03-24T10:37:36;11.20;;;7.68;;
60582;SDS011;46415;47.536;19.066;2023-03-24T10:40:39;8.45;;;6.50;;
60582;SDS011;46415;47.536;19.066;2023-03-24T10:43:43;9.32;;;6.72;;
60582;SDS011;46415;47.536;19.066;2023-03-24T10:46:48;9.65;;;6.37;;
60582;SDS011;46415;47.536;19.066;2023-03-24T10:50:01;9.45;;;6.90;;
60582;SDS011;46415;47.536;19.066;2023-03-24T10:53:17;8.45;;;6.10;;
60582;SDS011;46415;47.536;19.066;2023-03-24T10:56:41;8.40;;;6.03;;
60582;SDS011;46415;47.536;19.066;2023-03-24T10:59:54;6.95;;;5.45;;
60582;SDS011;46415;47.536;19.066;2023-03-24T11:03:04;8.25;;;5.32;;
60582;SDS011;46415;47.536;19.066;2023-03-24T11:06:15;6.55;;;4.70;;
60582;SDS011;46415;47.536;19.066;2023-03-24T11:12:25;8.27;;;4.35;;
60582;SDS011;46415;47.536;19.066;2023-03-24T11:15:31;6.00;;;4.60;;
60582;SDS011;46415;47.536;19.066;2023-03-24T11:18:35;5.90;;;4.43;;
60582;SDS011;46415;47.536;19.066;2023-03-24T11:21:38;6.68;;;4.60;;
60582;SDS011;46415;47.536;19.066;2023-03-24T11:24:41;7.95;;;4.57;;
60582;SDS011;46415;47.536;19.066;2023-03-24T11:27:45;7.10;;;4.32;;
60582;SDS011;46415;47.536;19.066;2023-03-24T11:30:48;6.60;;;4.45;;
60582;SDS011;46415;47.536;19.066;2023-03-24T11:33:57;5.75;;;3.72;;
60582;SDS011;46415;47.536;19.066;2023-03-24T11:40:36;6.80;;;4.10;;
60582;SDS011;46415;47.536;19.066;2023-03-24T11:43:39;6.70;;;4.10;;
60582;SDS011;46415;47.536;19.066;2023-03-24T11:46:42;6.90;;;4.30;;
60582;SDS011;46415;47.536;19.066;2023-03-24T11:53:13;6.90;;;3.80;;
60582;SDS011;46415;47.536;19.066;2023-03-24T11:56:30;7.07;;;3.90;;
60582;SDS011;46415;47.536;19.066;2023-03-24T12:03:22;4.47;;;3.45;;
60582;SDS011;46415;47.536;19.066;2023-03-24T12:13:34;4.65;;;3.15;;
60582;SDS011;46415;47.536;19.066;2023-03-24T12:16:47;4.87;;;3.12;;
60582;SDS011;46415;47.536;19.066;2023-03-24T12:20:06;4.28;;;2.90;;
60582;SDS011;46415;47.536;19.066;2023-03-24T12:23:33;2.35;;;2.15;;
60582;SDS011;46415;47.536;19.066;2023-03-24T12:26:41;3.05;;;2.75;;
60582;SDS011;46415;47.536;19.066;2023-03-24T12:39:21;3.62;;;2.37;;
60582;SDS011;46415;47.536;19.066;2023-03-24T12:42:29;1.80;;;1.70;;
60582;SDS011;46415;47.536;19.066;2023-03-24T12:52:08;2.17;;;2.08;;
60582;SDS011;46415;47.536;19.066;2023-03-24T12:55:36;2.50;;;1.87;;
60582;SDS011;46415;47.536;19.066;2023-03-24T12:58:49;2.08;;;1.87;;
60582;SDS011;46415;47.536;19.066;2023-03-24T13:02:07;2.25;;;1.90;;
60582;SDS011;46415;47.536;19.066;2023-03-24T13:05:19;2.42;;;2.10;;
60582;SDS011;46415;47.536;19.066;2023-03-24T13:08:28;4.57;;;2.20;;
60582;SDS011;46415;47.536;19.066;2023-03-24T13:11:37;2.40;;;2.20;;
60582;SDS011;46415;47.536;19.066;2023-03-24T13:18:30;3.37;;;2.08;;
60582;SDS011;46415;47.536;19.066;2023-03-24T13:21:37;2.12;;;2.03;;
60582;SDS011;46415;47.536;19.066;2023-03-24T13:24:40;3.35;;;2.00;;
60582;SDS011;46415;47.536;19.066;2023-03-24T13:27:43;2.35;;;2.00;;
60582;SDS011;46415;47.536;19.066;2023-03-24T13:30:50;2.33;;;2.12;;
60582;SDS011;46415;47.536;19.066;2023-03-24T13:33:54;2.55;;;2.05;;
60582;SDS011;46415;47.536;19.066;2023-03-24T13:36:59;2.08;;;1.87;;
60582;SDS011;46415;47.536;19.066;2023-03-24T13:40:06;2.00;;;1.80;;
60582;SDS011;46415;47.536;19.066;2023-03-24T13:43:23;2.55;;;2.00;;
60582;SDS011;46415;47.536;19.066;2023-03-24T13:46:30;3.85;;;2.05;;
60582;SDS011;46415;47.536;19.066;2023-03-24T13:49:33;2.03;;;1.92;;
60582;SDS011;46415;47.536;19.066;2023-03-24T13:52:37;2.90;;;2.25;;
60582;SDS011;46415;47.536;19.066;2023-03-24T13:55:50;2.47;;;2.05;;
60582;SDS011;46415;47.536;19.066;2023-03-24T14:06:14;2.17;;;1.90;;
60582;SDS011;46415;47.536;19.066;2023-03-24T14:09:03;2.08;;;1.92;;
60582;SDS011;46415;47.536;19.066;2023-03-24T14:12:08;2.23;;;1.83;;
60582;SDS011;46415;47.536;19.066;2023-03-24T14:21:27;2.08;;;1.95;;
60582;SDS011;46415;47.536;19.066;2023-03-24T14:24:33;2.65;;;2.10;;
60582;SDS011;46415;47.536;19.066;2023-03-24T14:27:37;2.65;;;2.33;;
60582;SDS011;46415;47.536;19.066;2023-03-24T14:34:07;2.12;;;2.03;;
60582;SDS011;46415;47.536;19.066;2023-03-24T14:37:17;2.45;;;2.00;;
60582;SDS011;46415;47.536;19.066;2023-03-24T14:40:27;2.65;;;2.25;;
60582;SDS011;46415;47.536;19.066;2023-03-24T14:46:41;2.35;;;2.00;;
60582;SDS011;46415;47.536;19.066;2023-03-24T14:49:47;2.58;;;2.25;;
60582;SDS011;46415;47.536;19.066;2023-03-24T14:52:59;2.28;;;2.12;;
60582;SDS011;46415;47.536;19.066;2023-03-24T14:56:09;3.03;;;2.30;;
60582;SDS011;46415;47.536;19.066;2023-03-24T14:59:19;3.10;;;2.40;;
60582;SDS011;46415;47.536;19.066;2023-03-24T15:02:42;2.20;;;2.00;;
60582;SDS011;46415;47.536;19.066;2023-03-24T15:05:46;2.40;;;2.20;;
60582;SDS011;46415;47.536;19.066;2023-03-24T15:08:50;2.62;;;2.40;;
60582;SDS011;46415;47.536;19.066;2023-03-24T15:11:54;2.22;;;2.10;;
60582;SDS011;46415;47.536;19.066;2023-03-24T15:15:00;2.58;;;2.37;;
60582;SDS011;46415;47.536;19.066;2023-03-24T15:18:04;3.70;;;2.30;;
60582;SDS011;46415;47.536;19.066;2023-03-24T15:21:21;2.40;;;2.20;;
60582;SDS011;46415;47.536;19.066;2023-03-24T15:24:36;2.30;;;2.12;;
60582;SDS011;46415;47.536;19.066;2023-03-24T15:27:39;2.70;;;2.50;;
60582;SDS011;46415;47.536;19.066;2023-03-24T15:30:42;2.30;;;2.20;;
60582;SDS011;46415;47.536;19.066;2023-03-24T15:33:45;2.40;;;2.08;;
60582;SDS011;46415;47.536;19.066;2023-03-24T15:36:52;2.47;;;2.05;;
60582;SDS011;46415;47.536;19.066;2023-03-24T15:39:57;4.10;;;2.15;;
60582;SDS011;46415;47.536;19.066;2023-03-24T15:43:19;2.67;;;2.10;;
60582;SDS011;46415;47.536;19.066;2023-03-24T15:46:29;3.53;;;2.40;;
60582;SDS011;46415;47.536;19.066;2023-03-24T15:49:33;3.10;;;2.40;;
60582;SDS011;46415;47.536;19.066;2023-03-24T15:52:37;2.33;;;2.12;;
60582;SDS011;46415;47.536;19.066;2023-03-24T15:55:41;2.83;;;2.10;;
60582;SDS011;46415;47.536;19.066;2023-03-24T16:02:26;2.15;;;1.95;;
60582;SDS011;46415;47.536;19.066;2023-03-24T16:05:46;2.67;;;2.28;;
60582;SDS011;46415;47.536;19.066;2023-03-24T16:08:50;2.40;;;2.20;;
60582;SDS011;46415;47.536;19.066;2023-03-24T16:11:53;2.50;;;2.30;;
60582;SDS011;46415;47.536;19.066;2023-03-24T16:14:56;2.28;;;2.08;;
60582;SDS011;46415;47.536;19.066;2023-03-24T16:17:58;2.37;;;2.17;;
60582;SDS011;46415;47.536;19.066;2023-03-24T16:21:13;3.25;;;2.40;;
60582;SDS011;46415;47.536;19.066;2023-03-24T16:24:19;2.47;;;2.28;;
60582;SDS011;46415;47.536;19.066;2023-03-24T16:27:21;2.67;;;2.37;;
60582;SDS011;46415;47.536;19.066;2023-03-24T16:30:34;3.05;;;2.33;;
60582;SDS011;46415;47.536;19.066;2023-03-24T16:33:41;2.70;;;2.20;;
60582;SDS011;46415;47.536;19.066;2023-03-24T16:36:44;2.50;;;2.30;;
60582;SDS011;46415;47.536;19.066;2023-03-24T16:39:48;2.70;;;2.50;;
60582;SDS011;46415;47.536;19.066;2023-03-24T16:42:51;2.62;;;2.42;;
60582;SDS011;46415;47.536;19.066;2023-03-24T16:45:53;3.40;;;2.70;;
60582;SDS011;46415;47.536;19.066;2023-03-24T16:48:57;4.05;;;2.33;;
60582;SDS011;46415;47.536;19.066;2023-03-24T16:52:00;3.50;;;2.42;;
60582;SDS011;46415;47.536;19.066;2023-03-24T16:55:03;2.53;;;2.33;;
60582;SDS011;46415;47.536;19.066;2023-03-24T16:58:06;3.22;;;2.60;;
60582;SDS011;46415;47.536;19.066;2023-03-24T17:01:14;2.85;;;2.55;;
60582;SDS011;46415;47.536;19.066;2023-03-24T17:04:31;3.20;;;2.60;;
60582;SDS011;46415;47.536;19.066;2023-03-24T17:07:35;2.85;;;2.62;;
60582;SDS011;46415;47.536;19.066;2023-03-24T17:10:38;3.87;;;2.62;;
60582;SDS011;46415;47.536;19.066;2023-03-24T17:13:43;3.10;;;2.90;;
60582;SDS011;46415;47.536;19.066;2023-03-24T17:16:46;3.20;;;2.90;;
60582;SDS011;46415;47.536;19.066;2023-03-24T17:19:52;4.72;;;3.22;;
60582;SDS011;46415;47.536;19.066;2023-03-24T17:22:54;5.10;;;2.85;;
60582;SDS011;46415;47.536;19.066;2023-03-24T17:25:58;2.80;;;2.60;;
60582;SDS011;46415;47.536;19.066;2023-03-24T17:29:01;3.67;;;3.37;;
60582;SDS011;46415;47.536;19.066;2023-03-24T17:32:04;4.22;;;2.92;;
60582;SDS011;46415;47.536;19.066;2023-03-24T17:35:09;4.55;;;2.90;;
60582;SDS011;46415;47.536;19.066;2023-03-24T17:38:14;2.83;;;2.62;;
60582;SDS011;46415;47.536;19.066;2023-03-24T17:41:17;3.97;;;3.10;;
60582;SDS011;46415;47.536;19.066;2023-03-24T17:44:22;4.43;;;3.15;;
60582;SDS011;46415;47.536;19.066;2023-03-24T17:47:24;4.60;;;3.30;;
60582;SDS011;46415;47.536;19.066;2023-03-24T17:50:27;3.85;;;3.30;;
60582;SDS011;46415;47.536;19.066;2023-03-24T17:53:32;3.87;;;3.12;;
60582;SDS011;46415;47.536;19.066;2023-03-24T17:56:35;3.83;;;3.40;;
60582;SDS011;46415;47.536;19.066;2023-03-24T17:59:38;5.70;;;3.20;;
60582;SDS011;46415;47.536;19.066;2023-03-24T18:02:41;4.85;;;3.25;;
60582;SDS011;46415;47.536;19.066;2023-03-24T18:05:44;5.55;;;3.78;;
60582;SDS011;46415;47.536;19.066;2023-03-24T18:08:49;6.18;;;3.35;;
60582;SDS011;46415;47.536;19.066;2023-03-24T18:11:52;4.72;;;3.10;;
60582;SDS011;46415;47.536;19.066;2023-03-24T18:14:55;3.78;;;3.15;;
60582;SDS011;46415;47.536;19.066;2023-03-24T18:17:58;4.18;;;3.45;;
60582;SDS011;46415;47.536;19.066;2023-03-24T18:21:01;6.53;;;3.50;;
60582;SDS011;46415;47.536;19.066;2023-03-24T18:24:04;3.12;;;2.83;;
60582;SDS011;46415;47.536;19.066;2023-03-24T18:27:07;5.18;;;3.05;;
60582;SDS011;46415;47.536;19.066;2023-03-24T18:30:12;3.55;;;2.95;;
60582;SDS011;46415;47.536;19.066;2023-03-24T18:33:15;4.45;;;3.30;;
60582;SDS011;46415;47.536;19.066;2023-03-24T18:36:19;3.92;;;3.08;;
60582;SDS011;46415;47.536;19.066;2023-03-24T18:39:27;3.22;;;2.92;;
60582;SDS011;46415;47.536;19.066;2023-03-24T18:42:31;3.67;;;3.25;;
60582;SDS011;46415;47.536;19.066;2023-03-24T18:45:34;3.53;;;2.87;;
60582;SDS011;46415;47.536;19.066;2023-03-24T18:48:37;3.78;;;3.12;;
60582;SDS011;46415;47.536;19.066;2023-03-24T18:51:45;3.37;;;3.08;;
60582;SDS011;46415;47.536;19.066;2023-03-24T18:54:48;6.43;;;3.62;;
60582;SDS011;46415;47.536;19.066;2023-03-24T18:57:50;4.65;;;3.50;;
60582;SDS011;46415;47.536;19.066;2023-03-24T19:00:54;4.82;;;2.97;;
60582;SDS011;46415;47.536;19.066;2023-03-24T19:03:58;5.65;;;3.55;;
60582;SDS011;46415;47.536;19.066;2023-03-24T19:07:01;3.78;;;3.35;;
60582;SDS011;46415;47.536;19.066;2023-03-24T19:10:09;5.62;;;3.42;;
60582;SDS011;46415;47.536;19.066;2023-03-24T19:13:13;6.55;;;3.53;;
60582;SDS011;46415;47.536;19.066;2023-03-24T19:16:17;3.58;;;3.15;;
60582;SDS011;46415;47.536;19.066;2023-03-24T19:19:21;3.35;;;3.00;;
60582;SDS011;46415;47.536;19.066;2023-03-24T19:22:24;5.80;;;3.35;;
60582;SDS011;46415;47.536;19.066;2023-03-24T19:25:28;3.60;;;3.20;;
60582;SDS011;46415;47.536;19.066;2023-03-24T19:28:31;3.30;;;3.00;;
60582;SDS011;46415;47.536;19.066;2023-03-24T19:31:39;4.37;;;3.53;;
60582;SDS011;46415;47.536;19.066;2023-03-24T19:34:41;4.87;;;3.20;;
60582;SDS011;46415;47.536;19.066;2023-03-24T19:37:44;4.68;;;3.35;;
60582;SDS011;46415;47.536;19.066;2023-03-24T19:40:47;4.28;;;3.35;;
60582;SDS011;46415;47.536;19.066;2023-03-24T19:43:53;6.15;;;3.40;;
60582;SDS011;46415;47.536;19.066;2023-03-24T19:46:55;4.15;;;3.40;;
60582;SDS011;46415;47.536;19.066;2023-03-24T19:49:58;3.85;;;3.45;;
60582;SDS011;46415;47.536;19.066;2023-03-24T19:53:01;5.22;;;3.70;;
60582;SDS011;46415;47.536;19.066;2023-03-24T19:56:05;3.83;;;3.12;;
60582;SDS011;46415;47.536;19.066;2023-03-24T19:59:08;5.95;;;4.10;;
60582;SDS011;46415;47.536;19.066;2023-03-24T20:02:15;4.45;;;3.90;;
60582;SDS011;46415;47.536;19.066;2023-03-24T20:05:19;4.62;;;3.78;;
60582;SDS011;46415;47.536;19.066;2023-03-24T20:08:22;5.32;;;3.83;;
60582;SDS011;46415;47.536;19.066;2023-03-24T20:11:27;5.10;;;3.67;;
60582;SDS011;46415;47.536;19.066;2023-03-24T20:14:30;5.65;;;4.35;;
60582;SDS011;46415;47.536;19.066;2023-03-24T20:17:33;5.47;;;4.03;;